createdAt,value
2017-11-21T00:00:06.056Z,998.71
2017-11-21T00:01:15.870Z,998.69
2017-11-21T00:02:25.981Z,998.7
2017-11-21T00:03:35.785Z,998.65
2017-11-21T00:04:45.856Z,998.64
2017-11-21T00:05:55.427Z,998.59
2017-11-21T00:07:05.518Z,998.64
2017-11-21T00:08:15.617Z,998.62
2017-11-21T00:09:25.702Z,998.59
2017-11-21T00:10:35.249Z,998.59
2017-11-21T00:11:45.348Z,998.6
2017-11-21T00:12:55.449Z,998.58
2017-11-21T00:14:05.575Z,998.55
2017-11-21T00:15:15.646Z,998.54
2017-11-21T00:16:25.731Z,998.52
2017-11-21T00:17:35.815Z,998.54
2017-11-21T00:18:45.631Z,998.5
2017-11-21T00:19:55.447Z,998.5
2017-11-21T00:21:04.996Z,998.48
2017-11-21T00:22:15.075Z,998.51
2017-11-21T00:23:24.893Z,998.48
2017-11-21T00:24:34.965Z,998.49
2017-11-21T00:25:44.577Z,998.46
2017-11-21T00:26:54.420Z,998.45
2017-11-21T00:28:03.981Z,998.42
2017-11-21T00:29:14.052Z,998.41
2017-11-21T00:30:24.136Z,998.38
2017-11-21T00:31:33.672Z,998.38
2017-11-21T00:32:43.777Z,998.35
2017-11-21T00:33:53.595Z,998.36
2017-11-21T00:35:03.668Z,998.32
2017-11-21T00:36:13.199Z,998.31
2017-11-21T00:37:23.062Z,998.28
2017-11-21T00:38:32.609Z,998.31
2017-11-21T00:39:41.894Z,998.32
2017-11-21T00:40:51.699Z,998.35
2017-11-21T00:42:14.520Z,998.36
2017-11-21T00:43:24.644Z,998.38
2017-11-21T00:44:34.706Z,998.28
2017-11-21T00:45:44.517Z,998.28
2017-11-21T00:46:53.799Z,998.29
2017-11-21T00:48:03.932Z,998.28
2017-11-21T00:49:13.728Z,998.28
2017-11-21T00:50:23.530Z,998.26
2017-11-21T00:51:33.599Z,998.26
2017-11-21T00:52:43.131Z,998.24
2017-11-21T00:53:52.942Z,998.23
2017-11-21T00:55:04.217Z,998.26
2017-11-21T00:56:14.283Z,998.27
2017-11-21T00:57:24.383Z,998.22
2017-11-21T00:58:34.461Z,998.22
2017-11-21T00:59:44.525Z,998.24
2017-11-21T01:00:54.319Z,998.24
2017-11-21T01:02:03.855Z,998.21
2017-11-21T01:03:13.649Z,998.22
2017-11-21T01:04:22.935Z,998.21
2017-11-21T01:05:33.053Z,998.21
2017-11-21T01:06:42.876Z,998.16
2017-11-21T01:07:52.665Z,998.08
2017-11-21T01:09:02.477Z,998.1
2017-11-21T01:10:12.548Z,998.07
2017-11-21T01:11:22.617Z,997.99
2017-11-21T01:12:32.417Z,998.02
2017-11-21T01:13:42.506Z,997.99
2017-11-21T01:14:52.038Z,997.96
2017-11-21T01:16:02.120Z,997.94
2017-11-21T01:17:11.999Z,997.93
2017-11-21T01:18:22.055Z,997.92
2017-11-21T01:19:31.898Z,997.83
2017-11-21T01:20:41.987Z,997.86
2017-11-21T01:21:52.587Z,997.8
2017-11-21T01:23:02.718Z,997.81
2017-11-21T01:24:12.817Z,997.85
2017-11-21T01:25:22.907Z,997.76
2017-11-21T01:26:32.693Z,997.8
2017-11-21T01:27:42.776Z,997.79
2017-11-21T01:28:52.318Z,997.83
2017-11-21T01:30:02.134Z,997.86
2017-11-21T01:31:12.214Z,997.84
2017-11-21T01:32:22.327Z,997.81
2017-11-21T01:33:32.134Z,997.76
2017-11-21T01:34:42.194Z,997.78
2017-11-21T01:35:52.259Z,997.73
2017-11-21T01:37:02.072Z,997.72
2017-11-21T01:38:11.621Z,997.7
2017-11-21T01:39:21.701Z,997.69
2017-11-21T01:40:31.771Z,997.65
2017-11-21T01:41:41.585Z,997.63
2017-11-21T01:42:51.654Z,997.61
2017-11-21T01:44:01.449Z,997.59
2017-11-21T01:45:11.517Z,997.6
2017-11-21T01:46:21.333Z,997.58
2017-11-21T01:47:31.395Z,997.61
2017-11-21T01:48:41.463Z,997.55
2017-11-21T01:49:50.998Z,997.55
2017-11-21T01:51:00.820Z,997.63
2017-11-21T01:52:10.907Z,997.59
2017-11-21T01:53:21.000Z,997.58
2017-11-21T01:54:30.806Z,997.61
2017-11-21T01:55:40.360Z,997.55
2017-11-21T01:56:50.437Z,997.59
2017-11-21T01:58:00.502Z,997.61
2017-11-21T01:59:10.583Z,997.56
2017-11-21T02:00:20.845Z,997.56
2017-11-21T02:01:30.921Z,997.55
2017-11-21T02:02:41.064Z,997.53
2017-11-21T02:03:51.137Z,997.54
2017-11-21T02:05:01.206Z,997.56
2017-11-21T02:06:11.014Z,997.53
2017-11-21T02:07:20.834Z,997.52
2017-11-21T02:08:30.908Z,997.5
2017-11-21T02:09:40.993Z,997.46
2017-11-21T02:10:50.793Z,997.43
2017-11-21T02:12:00.332Z,997.43
2017-11-21T02:13:10.391Z,997.45
2017-11-21T02:14:20.467Z,997.4
2017-11-21T02:15:30.009Z,997.44
2017-11-21T02:16:39.811Z,997.47
2017-11-21T02:17:49.896Z,997.48
2017-11-21T02:18:59.971Z,997.43
2017-11-21T02:20:10.106Z,997.48
2017-11-21T02:21:20.187Z,997.48
2017-11-21T02:22:30.262Z,997.47
2017-11-21T02:23:40.059Z,997.48
2017-11-21T02:24:49.864Z,997.44
2017-11-21T02:25:59.922Z,997.5
2017-11-21T02:27:09.734Z,997.49
2017-11-21T02:28:19.796Z,997.52
2017-11-21T02:29:29.319Z,997.51
2017-11-21T02:30:39.123Z,997.51
2017-11-21T02:31:49.251Z,997.48
2017-11-21T02:32:59.321Z,997.5
2017-11-21T02:34:09.415Z,997.48
2017-11-21T02:35:19.240Z,997.46
2017-11-21T02:36:29.330Z,997.47
2017-11-21T02:37:39.486Z,997.41
2017-11-21T02:38:49.022Z,997.38
2017-11-21T02:39:59.126Z,997.36
2017-11-21T02:41:08.937Z,997.33
2017-11-21T02:42:19.043Z,997.34
2017-11-21T02:43:28.840Z,997.34
2017-11-21T02:44:38.637Z,997.3
2017-11-21T02:45:48.712Z,997.28
2017-11-21T02:46:58.254Z,997.31
2017-11-21T02:48:08.068Z,997.36
2017-11-21T02:49:17.898Z,997.34
2017-11-21T02:50:27.987Z,997.3
2017-11-21T02:51:37.792Z,997.26
2017-11-21T02:52:47.630Z,997.28
2017-11-21T02:53:57.712Z,997.24
2017-11-21T02:55:07.570Z,997.24
2017-11-21T02:56:17.374Z,997.25
2017-11-21T02:57:26.919Z,997.28
2017-11-21T02:58:36.999Z,997.28
2017-11-21T02:59:47.056Z,997.29
2017-11-21T03:00:57.141Z,997.2
2017-11-21T03:02:06.948Z,997.17
2017-11-21T03:33:50.596Z,996.98
2017-11-21T03:35:00.652Z,996.99
2017-11-21T03:36:10.719Z,997
2017-11-21T03:37:20.785Z,996.93
2017-11-21T03:38:30.862Z,996.93
2017-11-21T03:39:40.714Z,996.91
2017-11-21T03:40:50.776Z,996.9
2017-11-21T03:42:00.972Z,996.93
2017-11-21T03:43:11.067Z,996.91
2017-11-21T03:44:21.142Z,996.88
2017-11-21T03:45:31.264Z,996.93
2017-11-21T03:46:41.065Z,996.96
2017-11-21T03:47:51.140Z,996.89
2017-11-21T03:49:00.680Z,996.95
2017-11-21T03:50:10.745Z,996.92
2017-11-21T03:51:20.818Z,996.92
2017-11-21T03:52:30.621Z,996.91
2017-11-21T03:53:40.717Z,996.95
2017-11-21T03:54:50.792Z,996.94
2017-11-21T03:56:00.380Z,996.85
2017-11-21T03:57:10.487Z,996.88
2017-11-21T03:58:20.569Z,996.85
2017-11-21T03:59:30.374Z,996.88
2017-11-21T04:00:40.460Z,996.87
2017-11-21T04:01:50.296Z,996.79
2017-11-21T04:03:00.090Z,996.84
2017-11-21T04:04:10.183Z,996.76
2017-11-21T04:05:19.719Z,996.78
2017-11-21T04:06:29.530Z,996.83
2017-11-21T04:07:39.074Z,996.8
2017-11-21T04:08:49.188Z,996.79
2017-11-21T04:09:59.264Z,996.8
2017-11-21T04:11:09.078Z,996.79
2017-11-21T04:12:19.159Z,996.81
2017-11-21T04:13:29.231Z,996.86
2017-11-21T04:14:39.523Z,996.85
2017-11-21T04:15:49.602Z,996.85
2017-11-21T04:16:59.142Z,996.83
2017-11-21T04:18:08.962Z,996.8
2017-11-21T04:19:18.253Z,996.79
2017-11-21T04:20:28.096Z,996.82
2017-11-21T04:21:38.241Z,996.82
2017-11-21T04:22:48.065Z,996.79
2017-11-21T04:23:57.890Z,996.73
2017-11-21T04:25:07.736Z,996.74
2017-11-21T04:26:17.803Z,996.74
2017-11-21T04:27:27.612Z,996.73
2017-11-21T04:28:37.158Z,996.76
2017-11-21T04:29:47.233Z,996.72
2017-11-21T04:30:57.053Z,996.67
2017-11-21T04:32:07.132Z,996.68
2017-11-21T04:33:16.680Z,996.58
2017-11-21T04:34:26.496Z,996.54
2017-11-21T04:35:36.583Z,996.53
2017-11-21T04:36:46.385Z,996.5
2017-11-21T04:37:56.445Z,996.45
2017-11-21T04:39:06.240Z,996.47
2017-11-21T04:40:16.321Z,996.41
2017-11-21T04:41:26.112Z,996.47
2017-11-21T04:42:35.918Z,996.45
2017-11-21T04:43:45.508Z,996.45
2017-11-21T04:44:55.618Z,996.47
2017-11-21T04:46:05.704Z,996.41
2017-11-21T04:47:15.776Z,996.42
2017-11-21T04:48:25.316Z,996.42
2017-11-21T04:49:35.436Z,996.43
2017-11-21T04:50:45.501Z,996.4
2017-11-21T04:51:55.571Z,996.42
2017-11-21T04:53:05.650Z,996.38
2017-11-21T04:54:15.766Z,996.32
2017-11-21T04:55:25.583Z,996.37
2017-11-21T04:56:35.655Z,996.36
2017-11-21T04:57:45.504Z,996.3
2017-11-21T04:58:55.590Z,996.34
2017-11-21T05:00:05.405Z,996.33
2017-11-21T05:01:14.729Z,996.32
2017-11-21T05:02:24.801Z,996.32
2017-11-21T05:03:34.595Z,996.32
2017-11-21T05:04:44.404Z,996.28
2017-11-21T05:05:54.499Z,996.33
2017-11-21T05:07:04.047Z,996.37
2017-11-21T05:08:14.115Z,996.39
2017-11-21T05:09:24.201Z,996.38
2017-11-21T05:10:34.267Z,996.37
2017-11-21T05:11:44.367Z,996.42
2017-11-21T05:12:54.476Z,996.35
2017-11-21T05:14:04.006Z,996.34
2017-11-21T05:15:13.806Z,996.39
2017-11-21T05:16:23.625Z,996.33
2017-11-21T05:17:33.425Z,996.31
2017-11-21T05:18:43.545Z,996.35
2017-11-21T05:19:53.346Z,996.29
2017-11-21T05:21:03.416Z,996.33
2017-11-21T05:22:13.476Z,996.25
2017-11-21T05:23:23.551Z,996.23
2017-11-21T05:24:33.633Z,996.21
2017-11-21T05:25:43.448Z,996.21
2017-11-21T05:26:53.262Z,996.23
2017-11-21T05:28:03.091Z,996.24
2017-11-21T05:29:12.888Z,996.23
2017-11-21T05:30:22.434Z,996.2
2017-11-21T05:31:32.511Z,996.14
2017-11-21T05:32:42.570Z,996.15
2017-11-21T05:33:52.387Z,996.12
2017-11-21T05:35:02.193Z,996.09
2017-11-21T05:36:12.279Z,996.11
2017-11-21T05:37:22.363Z,996.06
2017-11-21T05:38:31.912Z,996.08
2017-11-21T05:39:41.981Z,996.07
2017-11-21T05:40:51.785Z,996.08
2017-11-21T05:42:01.323Z,996.1
2017-11-21T05:43:11.140Z,996.09
2017-11-21T05:44:20.977Z,996.06
2017-11-21T05:45:30.798Z,996.06
2017-11-21T05:46:40.884Z,996.09
2017-11-21T05:47:50.965Z,996.09
2017-11-21T05:49:01.061Z,996.13
2017-11-21T05:50:10.880Z,996.1
2017-11-21T05:51:20.426Z,996.13
2017-11-21T05:52:30.229Z,996.17
2017-11-21T05:53:40.032Z,996.16
2017-11-21T05:54:49.843Z,996.15
2017-11-21T05:55:59.654Z,996.19
2017-11-21T05:57:09.725Z,996.17
2017-11-21T05:58:19.807Z,996.17
2017-11-21T05:59:29.362Z,996.22
2017-11-21T06:00:39.441Z,996.27
2017-11-21T06:01:49.517Z,996.27
2017-11-21T06:02:59.591Z,996.21
2017-11-21T06:04:09.404Z,996.21
2017-11-21T06:05:19.507Z,996.24
2017-11-21T06:06:28.770Z,996.26
2017-11-21T06:07:38.597Z,996.24
2017-11-21T06:08:48.678Z,996.26
2017-11-21T06:09:58.754Z,996.25
2017-11-21T06:11:08.848Z,996.23
2017-11-21T06:12:18.926Z,996.25
2017-11-21T06:13:28.749Z,996.19
2017-11-21T06:14:38.838Z,996.24
2017-11-21T06:15:48.917Z,996.23
2017-11-21T06:16:58.718Z,996.24
2017-11-21T06:18:08.791Z,996.27
2017-11-21T06:19:18.919Z,996.24
2017-11-21T06:20:28.987Z,996.27
2017-11-21T06:21:39.053Z,996.31
2017-11-21T06:22:50.426Z,996.29
2017-11-21T06:23:59.986Z,996.26
2017-11-21T06:25:10.078Z,996.25
2017-11-21T06:26:19.913Z,996.27
2017-11-21T06:27:29.477Z,996.32
2017-11-21T06:28:39.552Z,996.35
2017-11-21T06:29:49.657Z,996.38
2017-11-21T06:30:59.759Z,996.32
2017-11-21T06:32:09.840Z,996.36
2017-11-21T06:33:19.660Z,996.39
2017-11-21T06:34:29.806Z,996.33
2017-11-21T06:35:39.885Z,996.33
2017-11-21T06:36:49.683Z,996.29
2017-11-21T06:38:00.072Z,996.3
2017-11-21T06:39:10.151Z,996.28
2017-11-21T06:40:20.273Z,996.3
2017-11-21T06:41:30.338Z,996.36
2017-11-21T06:42:40.401Z,996.34
2017-11-21T06:43:50.471Z,996.34
2017-11-21T06:45:00.552Z,996.35
2017-11-21T06:46:10.606Z,996.39
2017-11-21T06:47:20.666Z,996.4
2017-11-21T06:48:30.724Z,996.39
2017-11-21T06:49:40.538Z,996.4
2017-11-21T06:50:50.604Z,996.45
2017-11-21T06:52:00.464Z,996.41
2017-11-21T06:53:10.550Z,996.48
2017-11-21T06:54:20.347Z,996.44
2017-11-21T06:55:30.426Z,996.48
2017-11-21T06:56:40.535Z,996.43
2017-11-21T06:57:50.783Z,996.46
2017-11-21T06:59:00.323Z,996.47
2017-11-21T07:00:10.136Z,996.46
2017-11-21T07:01:20.222Z,996.48
2017-11-21T07:02:30.283Z,996.47
2017-11-21T07:03:40.135Z,996.48
2017-11-21T07:04:49.943Z,996.52
2017-11-21T07:05:59.495Z,996.49
2017-11-21T07:07:09.486Z,996.52
2017-11-21T07:08:19.296Z,996.52
2017-11-21T07:09:29.170Z,996.56
2017-11-21T07:10:38.989Z,996.54
2017-11-21T07:11:48.833Z,996.58
2017-11-21T07:12:58.640Z,996.61
2017-11-21T07:14:08.468Z,996.6
2017-11-21T07:15:18.549Z,996.64
2017-11-21T07:16:28.655Z,996.68
2017-11-21T07:17:38.725Z,996.6
2017-11-21T07:18:48.828Z,996.64
2017-11-21T07:19:58.910Z,996.65
2017-11-21T07:21:09.044Z,996.64
2017-11-21T07:22:18.862Z,996.63
2017-11-21T07:23:28.950Z,996.59
2017-11-21T07:24:39.045Z,996.64
2017-11-21T07:25:48.861Z,996.62
2017-11-21T07:26:58.392Z,996.63
2017-11-21T07:28:08.203Z,996.59
2017-11-21T07:29:18.275Z,996.59
2017-11-21T07:30:28.072Z,996.57
2017-11-21T07:31:37.608Z,996.56
2017-11-21T07:32:47.698Z,996.55
2017-11-21T07:33:57.497Z,996.52
2017-11-21T07:35:07.633Z,996.6
2017-11-21T07:36:17.478Z,996.59
2017-11-21T07:37:27.293Z,996.61
2017-11-21T07:38:37.094Z,996.58
2017-11-21T07:39:47.177Z,996.58
2017-11-21T07:40:57.021Z,996.6
2017-11-21T07:42:06.579Z,996.56
2017-11-21T07:43:16.642Z,996.61
2017-11-21T07:44:26.434Z,996.59
2017-11-21T07:45:36.244Z,996.58
2017-11-21T07:46:46.053Z,996.57
2017-11-21T07:47:56.124Z,996.58
2017-11-21T07:49:06.190Z,996.55
2017-11-21T07:50:16.279Z,996.57
2017-11-21T07:51:26.097Z,996.59
2017-11-21T07:52:36.170Z,996.6
2017-11-21T07:53:45.441Z,996.62
2017-11-21T07:54:55.246Z,996.57
2017-11-21T07:56:05.156Z,996.6
2017-11-21T07:57:15.256Z,996.54
2017-11-21T07:58:25.340Z,996.57
2017-11-21T07:59:35.419Z,996.55
2017-11-21T08:00:45.219Z,996.56
2017-11-21T08:01:55.033Z,996.57
2017-11-21T08:03:05.125Z,996.54
2017-11-21T08:04:14.670Z,996.53
2017-11-21T08:05:24.477Z,996.55
2017-11-21T08:06:34.020Z,996.57
2017-11-21T08:07:43.810Z,996.55
2017-11-21T08:08:53.602Z,996.51
2017-11-21T08:10:03.402Z,996.55
2017-11-21T08:11:13.208Z,996.47
2017-11-21T08:12:23.266Z,996.5
2017-11-21T08:13:33.064Z,996.51
2017-11-21T08:14:43.153Z,996.56
2017-11-21T08:15:52.698Z,996.56
2017-11-21T08:17:02.544Z,996.52
2017-11-21T08:18:12.364Z,996.51
2017-11-21T08:19:22.155Z,996.5
2017-11-21T08:20:32.222Z,996.51
2017-11-21T08:21:42.306Z,996.53
2017-11-21T08:22:52.118Z,996.52
2017-11-21T08:24:01.946Z,996.49
2017-11-21T08:25:12.067Z,996.5
2017-11-21T08:26:21.635Z,996.51
2017-11-21T08:27:31.463Z,996.52
2017-11-21T08:28:41.533Z,996.44
2017-11-21T08:29:51.636Z,996.49
2017-11-21T08:31:01.786Z,996.43
2017-11-21T08:32:11.856Z,996.46
2017-11-21T08:33:21.931Z,996.42
2017-11-21T08:34:31.746Z,996.47
2017-11-21T08:35:41.550Z,996.49
2017-11-21T08:36:51.676Z,996.44
2017-11-21T08:38:01.743Z,996.48
2017-11-21T08:39:11.855Z,996.52
2017-11-21T08:40:21.671Z,996.48
2017-11-21T08:41:31.218Z,996.49
2017-11-21T08:42:41.069Z,996.46
2017-11-21T08:43:50.877Z,996.5
2017-11-21T08:45:00.749Z,996.52
2017-11-21T08:46:10.567Z,996.48
2017-11-21T08:47:19.579Z,996.52
2017-11-21T08:48:29.430Z,996.46
2017-11-21T08:49:39.300Z,996.52
2017-11-21T08:50:49.391Z,996.52
2017-11-21T08:51:59.467Z,996.5
2017-11-21T08:53:09.541Z,996.52
2017-11-21T08:54:19.362Z,996.53
2017-11-21T08:55:29.474Z,996.52
2017-11-21T08:56:39.541Z,996.53
2017-11-21T08:57:49.358Z,996.5
2017-11-21T08:58:58.900Z,996.53
2017-11-21T09:00:09.222Z,996.52
2017-11-21T09:01:19.019Z,996.52
2017-11-21T09:02:29.105Z,996.54
2017-11-21T09:03:39.189Z,996.49
2017-11-21T09:04:49.018Z,996.5
2017-11-21T09:05:58.565Z,996.45
2017-11-21T09:07:08.373Z,996.43
2017-11-21T09:08:18.453Z,996.46
2017-11-21T09:09:28.245Z,996.44
2017-11-21T09:10:38.323Z,996.45
2017-11-21T09:11:48.188Z,996.53
2017-11-21T09:12:58.265Z,996.52
2017-11-21T09:14:08.068Z,996.52
2017-11-21T09:15:18.136Z,996.55
2017-11-21T09:16:28.221Z,996.58
2017-11-21T09:17:38.100Z,996.52
2017-11-21T09:18:47.912Z,996.58
2017-11-21T09:19:57.475Z,996.52
2017-11-21T09:21:07.553Z,996.55
2017-11-21T09:22:17.424Z,996.51
2017-11-21T09:23:27.505Z,996.53
2017-11-21T09:24:37.347Z,996.5
2017-11-21T09:25:47.166Z,996.54
2017-11-21T09:26:56.978Z,996.54
2017-11-21T09:28:06.793Z,996.53
2017-11-21T09:29:16.950Z,996.51
2017-11-21T09:30:26.792Z,996.47
2017-11-21T09:31:36.862Z,996.44
2017-11-21T09:32:46.704Z,996.47
2017-11-21T09:33:56.517Z,996.55
2017-11-21T09:35:06.381Z,996.52
2017-11-21T09:36:16.187Z,996.53
2017-11-21T09:37:25.996Z,996.53
2017-11-21T09:38:36.078Z,996.54
2017-11-21T09:39:46.152Z,996.49
2017-11-21T09:40:56.225Z,996.56
2017-11-21T09:42:06.041Z,996.53
2017-11-21T09:43:16.178Z,996.49
2017-11-21T09:44:26.499Z,996.47
2017-11-21T09:45:35.781Z,996.5
2017-11-21T09:46:45.876Z,996.54
2017-11-21T09:47:56.026Z,996.49
2017-11-21T09:49:06.087Z,996.54
2017-11-21T09:50:15.625Z,996.49
2017-11-21T09:51:25.154Z,996.47
2017-11-21T09:52:34.974Z,996.44
2017-11-21T09:53:45.117Z,996.45
2017-11-21T09:54:55.194Z,996.5
2017-11-21T09:56:05.009Z,996.45
2017-11-21T09:57:14.830Z,996.42
2017-11-21T09:58:24.644Z,996.4
2017-11-21T09:59:34.781Z,996.43
2017-11-21T10:00:45.037Z,996.44
2017-11-21T10:01:55.109Z,996.43
2017-11-21T10:03:05.211Z,996.39
2017-11-21T10:04:15.297Z,996.39
2017-11-21T10:05:26.184Z,996.38
2017-11-21T10:06:36.256Z,996.33
2017-11-21T10:07:46.092Z,996.32
2017-11-21T10:08:55.910Z,996.31
2017-11-21T10:10:05.990Z,996.31
2017-11-21T10:11:16.152Z,996.31
2017-11-21T10:12:26.240Z,996.31
2017-11-21T10:13:36.067Z,996.18
2017-11-21T10:14:45.880Z,996.28
2017-11-21T10:15:55.705Z,996.25
2017-11-21T10:17:05.503Z,996.21
2017-11-21T10:18:15.041Z,996.23
2017-11-21T10:19:24.849Z,996.23
2017-11-21T10:20:34.657Z,996.15
2017-11-21T10:21:44.467Z,996.14
2017-11-21T10:22:54.098Z,996.12
2017-11-21T10:24:04.172Z,996.15
2017-11-21T10:25:13.986Z,996.14
2017-11-21T10:26:23.552Z,996.09
2017-11-21T10:27:33.639Z,996.05
2017-11-21T10:28:43.772Z,996.04
2017-11-21T10:29:53.887Z,996.07
2017-11-21T10:31:03.962Z,996.05
2017-11-21T10:32:14.051Z,996
2017-11-21T10:33:23.375Z,995.97
2017-11-21T10:34:33.254Z,995.99
2017-11-21T10:35:43.349Z,996.01
2017-11-21T10:36:53.433Z,995.95
2017-11-21T10:38:02.973Z,996
2017-11-21T10:39:12.837Z,996.02
2017-11-21T10:40:23.017Z,995.99
2017-11-21T10:41:32.836Z,996
2017-11-21T10:42:44.178Z,995.93
2017-11-21T10:43:53.991Z,995.95
2017-11-21T10:45:04.463Z,995.9
2017-11-21T10:46:14.555Z,995.9
2017-11-21T10:47:24.369Z,995.93
2017-11-21T10:48:34.450Z,995.87
2017-11-21T10:49:44.292Z,995.85
2017-11-21T10:50:54.123Z,995.86
2017-11-21T10:52:03.988Z,995.82
2017-11-21T10:53:14.080Z,995.83
2017-11-21T10:54:23.893Z,995.78
2017-11-21T10:55:33.445Z,995.78
2017-11-21T10:56:43.522Z,995.84
2017-11-21T10:57:53.080Z,995.79
2017-11-21T10:59:02.904Z,995.81
2017-11-21T11:00:13.392Z,995.77
2017-11-21T11:01:23.467Z,995.83
2017-11-21T11:02:33.566Z,995.77
2017-11-21T11:03:44.388Z,995.84
2017-11-21T11:04:54.469Z,995.73
2017-11-21T11:06:04.306Z,995.78
2017-11-21T11:07:14.367Z,995.68
2017-11-21T11:08:24.184Z,995.73
2017-11-21T11:09:34.088Z,995.74
2017-11-21T11:10:44.632Z,995.7
2017-11-21T11:11:54.439Z,995.73
2017-11-21T11:13:04.001Z,995.7
2017-11-21T11:14:13.822Z,995.7
2017-11-21T11:15:23.699Z,995.73
2017-11-21T11:16:33.513Z,995.7
2017-11-21T11:17:43.616Z,995.75
2017-11-21T11:18:53.424Z,995.7
2017-11-21T11:20:03.238Z,995.66
2017-11-21T11:21:13.109Z,995.68
2017-11-21T11:22:22.927Z,995.69
2017-11-21T11:23:33.045Z,995.71
2017-11-21T11:24:43.130Z,995.63
2017-11-21T11:25:53.214Z,995.69
2017-11-21T11:27:03.069Z,995.63
2017-11-21T11:28:12.882Z,995.63
2017-11-21T11:29:22.704Z,995.58
2017-11-21T11:30:32.523Z,995.61
2017-11-21T11:31:42.345Z,995.63
2017-11-21T11:32:52.140Z,995.61
2017-11-21T11:34:01.968Z,995.55
2017-11-21T11:35:11.773Z,995.54
2017-11-21T11:36:21.871Z,995.54
2017-11-21T11:37:31.682Z,995.51
2017-11-21T11:38:41.764Z,995.54
2017-11-21T11:39:51.855Z,995.49
2017-11-21T11:41:01.419Z,995.52
2017-11-21T11:42:11.220Z,995.48
2017-11-21T11:43:21.026Z,995.46
2017-11-21T11:44:31.134Z,995.52
2017-11-21T11:45:40.971Z,995.4
2017-11-21T11:46:50.778Z,995.45
2017-11-21T11:48:00.319Z,995.46
2017-11-21T11:49:09.866Z,995.5
2017-11-21T11:50:20.028Z,995.49
2017-11-21T11:51:30.079Z,995.47
2017-11-21T11:52:40.140Z,995.49
2017-11-21T11:53:50.212Z,995.48
2017-11-21T11:55:00.298Z,995.45
2017-11-21T11:56:10.411Z,995.42
2017-11-21T11:57:20.481Z,995.4
2017-11-21T11:58:30.565Z,995.43
2017-11-21T11:59:40.114Z,995.42
2017-11-21T12:00:49.916Z,995.42
2017-11-21T12:01:59.798Z,995.39
2017-11-21T12:03:09.642Z,995.37
2017-11-21T12:04:19.465Z,995.33
2017-11-21T12:05:29.279Z,995.35
2017-11-21T12:06:39.368Z,995.25
2017-11-21T12:07:48.956Z,995.29
2017-11-21T12:08:58.757Z,995.26
2017-11-21T12:10:08.858Z,995.27
2017-11-21T12:11:18.964Z,995.27
2017-11-21T12:12:28.503Z,995.24
2017-11-21T12:13:38.315Z,995.27
2017-11-21T12:14:48.143Z,995.21
2017-11-21T12:15:57.950Z,995.27
2017-11-21T12:17:08.066Z,995.15
2017-11-21T12:18:18.157Z,995.26
2017-11-21T12:19:28.017Z,995.22
2017-11-21T12:20:37.840Z,995.28
2017-11-21T12:21:47.382Z,995.28
2017-11-21T12:22:57.486Z,995.32
2017-11-21T12:24:07.571Z,995.31
2017-11-21T12:25:17.720Z,995.32
2017-11-21T12:26:27.802Z,995.31
2017-11-21T12:27:37.614Z,995.3
2017-11-21T12:28:47.426Z,995.3
2017-11-21T12:29:57.237Z,995.33
2017-11-21T12:31:08.021Z,995.33
2017-11-21T12:32:18.086Z,995.33
2017-11-21T12:33:27.903Z,995.31
2017-11-21T12:34:37.994Z,995.31
2017-11-21T12:35:48.102Z,995.31
2017-11-21T12:36:57.942Z,995.26
2017-11-21T12:38:07.754Z,995.27
2017-11-21T12:39:17.580Z,995.26
2017-11-21T12:40:27.403Z,995.23
2017-11-21T12:41:37.240Z,995.2
2017-11-21T12:42:47.100Z,995.25
2017-11-21T12:43:56.933Z,995.27
2017-11-21T12:45:06.751Z,995.26
2017-11-21T12:46:16.826Z,995.24
2017-11-21T12:47:26.643Z,995.26
2017-11-21T12:48:36.764Z,995.25
2017-11-21T12:49:46.580Z,995.22
2017-11-21T12:50:57.669Z,995.23
2017-11-21T12:52:07.771Z,995.19
2017-11-21T12:53:17.597Z,995.25
2017-11-21T12:54:27.749Z,995.21
2017-11-21T12:55:37.598Z,995.28
2017-11-21T12:56:47.177Z,995.13
2017-11-21T12:57:57.006Z,995.21
2017-11-21T12:59:07.077Z,995.17
2017-11-21T13:00:17.202Z,995.19
2017-11-21T13:01:27.298Z,995.16
2017-11-21T13:02:37.395Z,995.14
2017-11-21T13:03:47.478Z,995.23
2017-11-21T13:04:57.543Z,995.24
2017-11-21T13:06:07.637Z,995.24
2017-11-21T13:07:17.707Z,995.25
2017-11-21T13:08:27.248Z,995.23
2017-11-21T13:09:37.337Z,995.2
2017-11-21T13:10:47.155Z,995.22
2017-11-21T13:11:57.313Z,995.23
2017-11-21T13:13:07.413Z,995.18
2017-11-21T13:14:17.213Z,995.19
2017-11-21T13:15:26.493Z,995.23
2017-11-21T13:16:36.316Z,995.27
2017-11-21T13:17:46.495Z,995.26
2017-11-21T13:18:56.315Z,995.21
2017-11-21T13:20:06.378Z,995.28
2017-11-21T13:21:15.905Z,995.3
2017-11-21T13:22:25.983Z,995.27
2017-11-21T13:23:36.072Z,995.26
2017-11-21T13:24:46.149Z,995.25
2017-11-21T13:25:55.960Z,995.24
2017-11-21T13:27:05.797Z,995.2
2017-11-21T13:28:15.879Z,995.24
2017-11-21T13:29:25.683Z,995.35
2017-11-21T13:30:35.758Z,995.39
2017-11-21T13:31:45.580Z,995.34
2017-11-21T13:32:55.673Z,995.39
2017-11-21T13:34:05.773Z,995.39
2017-11-21T13:35:15.631Z,995.33
2017-11-21T13:36:25.446Z,995.3
2017-11-21T13:37:35.538Z,995.31
2017-11-21T13:38:45.597Z,995.32
2017-11-21T13:39:55.406Z,995.32
2017-11-21T13:41:05.222Z,995.36
2017-11-21T13:42:15.040Z,995.32
2017-11-21T13:43:25.128Z,995.31
2017-11-21T13:44:35.219Z,995.32
2017-11-21T13:45:45.322Z,995.43
2017-11-21T13:46:55.460Z,995.39
2017-11-21T13:48:05.522Z,995.45
2017-11-21T13:49:15.111Z,995.49
2017-11-21T13:50:24.393Z,995.44
2017-11-21T13:51:33.945Z,995.51
2017-11-21T13:52:43.775Z,995.41
2017-11-21T13:53:53.594Z,995.41
2017-11-21T13:55:03.430Z,995.43
2017-11-21T13:56:13.537Z,995.48
2017-11-21T13:57:23.618Z,995.45
2017-11-21T13:58:33.764Z,995.49
2017-11-21T13:59:43.336Z,995.47
2017-11-21T14:00:53.397Z,995.45
2017-11-21T14:02:03.479Z,995.52
2017-11-21T14:03:13.299Z,995.43
2017-11-21T14:04:23.424Z,995.5
2017-11-21T14:05:33.519Z,995.44
2017-11-21T14:06:43.596Z,995.5
2017-11-21T14:07:53.669Z,995.54
2017-11-21T14:09:03.483Z,995.53
2017-11-21T14:10:13.582Z,995.54
2017-11-21T14:11:23.406Z,995.49
2017-11-21T14:12:33.247Z,995.52
2017-11-21T14:13:43.307Z,995.53
2017-11-21T14:14:53.374Z,995.56
2017-11-21T14:16:04.132Z,995.55
2017-11-21T14:17:13.974Z,995.58
2017-11-21T14:18:24.069Z,995.58
2017-11-21T14:19:33.892Z,995.59
2017-11-21T14:20:43.974Z,995.55
2017-11-21T14:21:55.134Z,995.45
2017-11-21T14:23:05.230Z,995.53
2017-11-21T14:24:15.323Z,995.5
2017-11-21T14:25:25.136Z,995.55
2017-11-21T14:26:36.073Z,995.58
2017-11-21T14:27:46.144Z,995.55
2017-11-21T14:28:55.953Z,995.64
2017-11-21T14:30:06.032Z,995.52
2017-11-21T14:31:16.108Z,995.56
2017-11-21T14:32:26.214Z,995.61
2017-11-21T14:33:36.299Z,995.63
2017-11-21T14:34:46.103Z,995.56
2017-11-21T14:35:55.911Z,995.49
2017-11-21T14:37:05.475Z,995.53
2017-11-21T14:38:15.302Z,995.56
2017-11-21T14:39:25.411Z,995.54
2017-11-21T14:40:35.494Z,995.54
2017-11-21T14:41:45.308Z,995.54
2017-11-21T14:42:54.861Z,995.53
2017-11-21T14:44:04.677Z,995.5
2017-11-21T14:45:14.548Z,995.42
2017-11-21T14:46:24.622Z,995.53
2017-11-21T14:47:34.688Z,995.54
2017-11-21T14:48:44.769Z,995.47
2017-11-21T14:49:54.844Z,995.52
2017-11-21T14:51:04.809Z,995.52
2017-11-21T14:52:14.627Z,995.54
2017-11-21T14:53:24.480Z,995.47
2017-11-21T14:54:34.292Z,995.54
2017-11-21T14:55:44.095Z,995.49
2017-11-21T14:56:54.236Z,995.54
2017-11-21T14:58:03.816Z,995.48
2017-11-21T14:59:14.686Z,995.44
2017-11-21T15:00:24.505Z,995.42
2017-11-21T15:01:34.593Z,995.41
2017-11-21T15:02:44.195Z,995.49
2017-11-21T15:03:55.800Z,995.47
2017-11-21T15:05:08.635Z,995.39
2017-11-21T15:06:20.192Z,995.47